createdAt,value
2017-08-17T00:01:37.635Z,20.50
2017-08-17T00:04:05.357Z,20.40
2017-08-17T00:06:33.096Z,20.40
2017-08-17T00:09:00.819Z,20.40
2017-08-17T00:11:29.307Z,20.30
2017-08-17T00:13:57.033Z,20.30
2017-08-17T00:16:24.776Z,20.20
2017-08-17T00:18:52.510Z,20.20
2017-08-17T00:21:20.228Z,20.20
2017-08-17T00:23:47.955Z,20.10
2017-08-17T00:26:15.674Z,20.00
2017-08-17T00:28:44.158Z,20.00
2017-08-17T00:31:12.666Z,20.00
2017-08-17T00:33:40.392Z,20.00
2017-08-17T00:36:08.136Z,20.00
2017-08-17T00:38:35.912Z,20.00
2017-08-17T00:41:03.635Z,20.00
2017-08-17T00:43:31.393Z,20.00
2017-08-17T00:45:59.143Z,20.00
2017-08-17T00:48:26.879Z,19.90
2017-08-17T00:50:54.644Z,19.90
2017-08-17T00:53:22.389Z,20.00
2017-08-17T00:55:50.162Z,20.00
2017-08-17T00:58:17.918Z,20.00
2017-08-17T01:00:45.679Z,20.00
2017-08-17T01:03:13.422Z,20.00
2017-08-17T01:05:41.213Z,20.00
2017-08-17T01:08:09.017Z,20.00
2017-08-17T01:10:37.579Z,19.90
2017-08-17T01:13:05.330Z,19.90
2017-08-17T01:15:33.123Z,19.90
2017-08-17T01:18:01.655Z,19.80
2017-08-17T01:20:29.443Z,19.80
2017-08-17T01:22:57.233Z,19.80
2017-08-17T01:25:25.018Z,19.80
2017-08-17T01:27:52.814Z,19.80
2017-08-17T01:30:20.579Z,19.70
2017-08-17T01:32:48.375Z,19.70
2017-08-17T01:35:16.171Z,19.70
2017-08-17T01:37:44.740Z,19.60
2017-08-17T01:40:13.297Z,19.60
2017-08-17T01:42:41.144Z,19.60
2017-08-17T01:45:08.915Z,19.60
2017-08-17T01:47:36.706Z,19.60
2017-08-17T01:50:04.494Z,19.60
2017-08-17T01:52:33.063Z,19.50
2017-08-17T01:55:00.866Z,19.50
2017-08-17T01:57:28.642Z,19.50
2017-08-17T01:59:56.434Z,19.50
2017-08-17T02:02:24.219Z,19.40
2017-08-17T02:04:51.966Z,19.40
2017-08-17T02:07:19.747Z,19.40
2017-08-17T02:09:47.487Z,19.40
2017-08-17T02:12:15.350Z,19.30
2017-08-17T02:14:43.075Z,19.30
2017-08-17T02:17:10.798Z,19.20
2017-08-17T02:19:38.534Z,19.20
2017-08-17T02:22:06.267Z,19.20
2017-08-17T02:24:33.998Z,19.10
2017-08-17T02:27:01.714Z,19.10
2017-08-17T02:29:29.451Z,19.10
2017-08-17T02:31:57.183Z,19.10
2017-08-17T02:34:24.903Z,19.10
2017-08-17T02:36:52.620Z,19.00
2017-08-17T02:39:20.356Z,19.00
2017-08-17T02:41:48.087Z,19.00
2017-08-17T02:44:15.803Z,19.00
2017-08-17T02:46:43.535Z,18.90
2017-08-17T02:49:11.262Z,18.90
2017-08-17T02:51:39.755Z,18.90
2017-08-17T02:54:07.470Z,18.80
2017-08-17T02:56:35.184Z,18.80
2017-08-17T02:59:02.907Z,18.80
2017-08-17T03:01:30.627Z,18.70
2017-08-17T03:03:58.349Z,18.70
2017-08-17T03:06:26.094Z,18.70
2017-08-17T03:08:53.812Z,18.60
2017-08-17T03:11:21.548Z,18.60
2017-08-17T03:13:50.037Z,18.50
2017-08-17T03:16:18.514Z,18.50
2017-08-17T03:18:47.015Z,18.50
2017-08-17T03:21:14.743Z,18.50
2017-08-17T03:23:42.458Z,18.50
2017-08-17T03:26:10.185Z,18.50
2017-08-17T03:28:38.674Z,18.40
2017-08-17T03:31:07.203Z,18.40
2017-08-17T03:33:34.930Z,18.40
2017-08-17T03:36:02.654Z,18.40
2017-08-17T03:38:30.379Z,18.40
2017-08-17T03:40:58.101Z,18.40
2017-08-17T03:43:26.590Z,18.40
2017-08-17T03:45:55.078Z,18.40
2017-08-17T03:48:23.583Z,18.40
2017-08-17T03:50:51.305Z,18.40
2017-08-17T03:53:19.026Z,18.40
2017-08-17T03:55:46.751Z,18.40
2017-08-17T03:58:15.243Z,18.40
2017-08-17T04:00:42.959Z,18.40
2017-08-17T04:03:10.688Z,18.50
2017-08-17T04:05:38.417Z,18.50
2017-08-17T04:08:06.908Z,18.50
2017-08-17T04:10:35.403Z,18.60
2017-08-17T04:13:03.122Z,18.60
2017-08-17T04:15:30.838Z,18.60
2017-08-17T04:17:58.798Z,18.60
2017-08-17T04:20:26.514Z,18.60
2017-08-17T04:22:54.234Z,18.60
2017-08-17T04:25:21.949Z,18.50
2017-08-17T04:27:49.697Z,18.50
2017-08-17T04:30:17.499Z,18.60
2017-08-17T04:32:45.224Z,18.60
2017-08-17T04:35:12.950Z,18.60
2017-08-17T04:37:40.667Z,18.60
2017-08-17T04:40:08.394Z,18.60
2017-08-17T04:42:36.138Z,18.60
2017-08-17T04:45:03.901Z,18.70
2017-08-17T04:47:31.721Z,18.70
2017-08-17T04:49:59.487Z,18.70
2017-08-17T04:52:27.230Z,18.70
2017-08-17T04:54:54.957Z,18.70
2017-08-17T04:57:50.204Z,18.80
2017-08-17T05:00:17.954Z,18.80
2017-08-17T05:02:45.687Z,18.80
2017-08-17T05:05:13.439Z,18.90
2017-08-17T05:07:41.166Z,18.90
2017-08-17T05:10:08.900Z,18.90
2017-08-17T05:12:36.630Z,19.00
2017-08-17T05:15:04.372Z,19.00
2017-08-17T05:17:32.143Z,19.00
2017-08-17T05:19:59.870Z,19.10
2017-08-17T05:22:27.597Z,19.10
2017-08-17T05:24:56.102Z,19.20
2017-08-17T05:27:23.835Z,19.20
2017-08-17T05:29:51.550Z,19.30
2017-08-17T05:32:19.271Z,19.50
2017-08-17T05:34:47.799Z,19.80
2017-08-17T05:37:15.534Z,19.70
2017-08-17T05:39:43.272Z,19.90
2017-08-17T05:42:10.994Z,20.00
2017-08-17T05:44:38.740Z,20.10
2017-08-17T05:47:06.463Z,20.20
2017-08-17T05:49:34.190Z,20.30
2017-08-17T05:52:01.916Z,20.40
2017-08-17T05:54:29.655Z,20.50
2017-08-17T05:56:57.376Z,20.60
2017-08-17T05:59:25.110Z,20.60
2017-08-17T06:01:52.840Z,20.70
2017-08-17T06:04:20.562Z,20.80
2017-08-17T06:06:48.299Z,20.70
2017-08-17T06:09:16.783Z,20.90
2017-08-17T06:11:44.502Z,20.90
2017-08-17T06:14:12.233Z,20.90
2017-08-17T06:16:39.971Z,20.70
2017-08-17T06:19:08.454Z,20.90
2017-08-17T06:21:36.178Z,20.90
2017-08-17T06:24:03.903Z,20.90
2017-08-17T06:26:31.636Z,21.10
2017-08-17T06:29:00.126Z,21.80
2017-08-17T06:31:28.621Z,22.70
2017-08-17T06:33:56.353Z,22.70
2017-08-17T06:36:24.846Z,25.10
2017-08-17T06:38:53.351Z,26.10
2017-08-17T06:41:21.083Z,26.00
2017-08-17T06:43:48.804Z,27.10
2017-08-17T06:46:16.523Z,28.00
2017-08-17T06:48:45.015Z,28.30
2017-08-17T06:51:12.836Z,28.30
2017-08-17T06:53:40.566Z,28.90
2017-08-17T06:56:08.281Z,29.20
2017-08-17T06:58:36.035Z,29.20
2017-08-17T07:01:03.777Z,29.20
2017-08-17T07:03:31.511Z,29.00
2017-08-17T07:05:59.239Z,28.60
2017-08-17T07:08:26.967Z,28.30
2017-08-17T07:10:54.698Z,28.60
2017-08-17T07:13:22.421Z,28.80
2017-08-17T07:15:50.154Z,29.00
2017-08-17T07:18:17.890Z,29.40
2017-08-17T07:20:45.615Z,30.00
2017-08-17T07:23:13.340Z,30.70
2017-08-17T07:25:41.075Z,31.10
2017-08-17T07:28:09.577Z,31.20
2017-08-17T07:30:37.299Z,31.10
2017-08-17T07:33:05.030Z,31.20
2017-08-17T07:35:32.759Z,30.90
2017-08-17T07:38:00.489Z,30.70
2017-08-17T07:40:28.223Z,30.60
2017-08-17T07:42:55.957Z,30.10
2017-08-17T07:45:23.687Z,29.50
2017-08-17T07:47:51.420Z,29.20
2017-08-17T07:50:19.147Z,29.00
2017-08-17T07:52:46.911Z,28.90
2017-08-17T07:55:14.658Z,28.80
2017-08-17T07:57:43.204Z,28.60
2017-08-17T08:00:10.966Z,28.60
2017-08-17T08:02:38.734Z,28.60
2017-08-17T08:05:06.488Z,28.30
2017-08-17T08:07:34.215Z,28.10
2017-08-17T08:10:01.930Z,27.50
2017-08-17T08:12:29.694Z,27.30
2017-08-17T08:14:57.424Z,27.50
2017-08-17T08:17:25.187Z,27.70
2017-08-17T08:19:52.922Z,27.80
2017-08-17T08:22:21.412Z,28.00
2017-08-17T08:24:49.906Z,27.80
2017-08-17T08:27:17.638Z,27.80
2017-08-17T08:29:45.350Z,27.80
2017-08-17T08:32:13.074Z,27.70
2017-08-17T08:34:41.568Z,27.40
2017-08-17T08:37:09.300Z,27.40
2017-08-17T08:39:37.023Z,27.10
2017-08-17T08:42:04.835Z,26.90
2017-08-17T08:44:32.555Z,27.00
2017-08-17T08:47:00.282Z,27.00
2017-08-17T08:49:28.780Z,27.20
2017-08-17T08:51:56.517Z,27.20
2017-08-17T08:54:25.032Z,26.90
2017-08-17T08:56:52.756Z,26.90
2017-08-17T08:59:20.478Z,26.70
2017-08-17T09:01:48.210Z,26.60
2017-08-17T09:04:15.949Z,26.60
2017-08-17T09:06:43.680Z,26.50
2017-08-17T09:09:11.433Z,26.40
2017-08-17T09:11:39.156Z,26.30
2017-08-17T09:14:07.652Z,26.10
2017-08-17T09:16:35.391Z,26.00
2017-08-17T09:19:03.900Z,26.10
2017-08-17T09:21:31.631Z,26.00
2017-08-17T09:23:59.358Z,26.30
2017-08-17T09:26:27.152Z,26.50
2017-08-17T09:28:54.878Z,26.70
2017-08-17T09:31:22.603Z,26.70
2017-08-17T09:33:51.096Z,26.80
2017-08-17T09:36:19.576Z,26.90
2017-08-17T09:38:48.073Z,27.10
2017-08-17T09:44:22.198Z,27.50
2017-08-17T09:46:49.924Z,27.70
2017-08-17T09:49:17.648Z,28.00
2017-08-17T09:51:45.365Z,28.30
2017-08-17T09:54:13.091Z,28.60
2017-08-17T09:56:40.810Z,28.80
2017-08-17T09:59:09.290Z,28.90
2017-08-17T10:01:37.771Z,29.00
2017-08-17T10:04:06.265Z,29.00
2017-08-17T10:06:33.986Z,29.00
2017-08-17T10:09:01.733Z,28.90
2017-08-17T10:11:29.447Z,29.00
2017-08-17T10:13:57.190Z,29.10
2017-08-17T10:16:24.921Z,29.30
2017-08-17T10:18:52.638Z,29.20
2017-08-17T10:21:20.366Z,29.20
2017-08-17T10:23:48.091Z,29.30
2017-08-17T10:26:15.813Z,29.70
2017-08-17T10:28:43.522Z,29.80
2017-08-17T10:31:11.229Z,29.90
2017-08-17T10:33:38.946Z,30.10
2017-08-17T10:36:06.682Z,29.90
2017-08-17T10:38:34.412Z,29.90
2017-08-17T10:41:02.130Z,29.90
2017-08-17T10:43:29.854Z,29.60
2017-08-17T10:45:57.580Z,29.30
2017-08-17T10:48:25.294Z,29.60
2017-08-17T10:50:53.781Z,30.30
2017-08-17T10:53:22.282Z,30.50
2017-08-17T10:55:49.994Z,30.40
2017-08-17T10:58:17.725Z,30.90
2017-08-17T11:00:45.443Z,31.20
2017-08-17T11:03:13.170Z,30.90
2017-08-17T11:05:40.895Z,31.20
2017-08-17T11:08:08.619Z,31.30
2017-08-17T11:10:36.338Z,30.90
2017-08-17T11:13:04.063Z,30.70
2017-08-17T11:15:31.789Z,30.50
2017-08-17T11:17:59.510Z,30.50
2017-08-17T11:20:28.008Z,30.00
2017-08-17T11:22:55.730Z,29.90
2017-08-17T11:25:23.469Z,29.50
2017-08-17T11:27:51.195Z,29.20
2017-08-17T11:30:18.901Z,28.80
2017-08-17T11:32:46.612Z,28.80
2017-08-17T11:35:14.345Z,28.50
2017-08-17T11:37:42.078Z,28.30
2017-08-17T11:40:09.805Z,28.10
2017-08-17T11:42:37.537Z,28.10
2017-08-17T11:45:05.274Z,28.10
2017-08-17T11:47:32.994Z,28.30
2017-08-17T11:50:00.734Z,28.60
2017-08-17T11:52:28.458Z,29.20
2017-08-17T11:54:56.182Z,29.80
2017-08-17T11:57:24.664Z,30.80
2017-08-17T11:59:52.377Z,30.80
2017-08-17T12:02:20.094Z,31.20
2017-08-17T12:04:48.578Z,31.90
2017-08-17T12:07:16.296Z,31.90
2017-08-17T12:09:44.011Z,32.10
2017-08-17T12:12:11.726Z,32.20
2017-08-17T12:14:39.454Z,32.30
2017-08-17T12:17:07.183Z,32.50
2017-08-17T12:19:35.662Z,33.00
2017-08-17T12:22:03.374Z,33.00
2017-08-17T12:24:31.098Z,33.10
2017-08-17T12:26:58.838Z,32.90
2017-08-17T12:29:26.558Z,32.70
2017-08-17T12:31:54.279Z,32.50
2017-08-17T12:34:21.990Z,32.50
2017-08-17T12:36:49.713Z,32.70
2017-08-17T12:39:18.193Z,32.90
2017-08-17T12:41:45.930Z,32.80
2017-08-17T12:44:13.646Z,32.80
2017-08-17T12:46:41.369Z,32.70
2017-08-17T12:49:09.091Z,32.50
2017-08-17T12:51:36.815Z,32.10
2017-08-17T12:54:05.334Z,31.50
2017-08-17T12:56:33.073Z,31.50
2017-08-17T12:59:01.555Z,31.80
2017-08-17T13:01:30.046Z,31.70
2017-08-17T13:03:57.763Z,31.70
2017-08-17T13:06:25.479Z,31.80
2017-08-17T13:08:53.189Z,32.20
2017-08-17T13:11:20.914Z,32.30
2017-08-17T13:13:48.650Z,31.70
2017-08-17T13:16:17.145Z,31.60
2017-08-17T13:18:44.863Z,31.60
2017-08-17T13:21:12.586Z,31.80
2017-08-17T13:23:40.306Z,32.00
2017-08-17T13:26:08.031Z,32.20
2017-08-17T13:28:35.768Z,32.40
2017-08-17T13:31:03.508Z,32.50
2017-08-17T13:33:31.989Z,32.90
2017-08-17T13:36:00.471Z,33.20
2017-08-17T13:38:28.950Z,33.30
2017-08-17T13:40:56.672Z,33.30
2017-08-17T13:43:24.397Z,33.10
2017-08-17T13:45:52.886Z,33.00
2017-08-17T13:48:20.613Z,33.00
2017-08-17T13:50:48.333Z,33.10
2017-08-17T13:53:16.050Z,32.70
2017-08-17T13:55:43.771Z,32.30
2017-08-17T13:58:11.481Z,32.10
2017-08-17T14:00:40.004Z,31.80
2017-08-17T14:03:07.723Z,31.90
2017-08-17T14:05:35.435Z,31.70
2017-08-17T14:08:03.157Z,31.30
2017-08-17T14:10:31.672Z,31.20
2017-08-17T14:12:59.399Z,31.20
2017-08-17T14:15:27.882Z,31.00
2017-08-17T14:17:55.590Z,31.00
2017-08-17T14:20:23.309Z,30.90
2017-08-17T14:22:51.048Z,30.80
2017-08-17T14:25:18.762Z,30.70
2017-08-17T14:27:46.494Z,30.60
2017-08-17T14:30:14.213Z,30.50
2017-08-17T14:32:41.927Z,30.40
2017-08-17T14:35:09.656Z,30.30
2017-08-17T14:37:37.386Z,30.10
2017-08-17T14:40:05.093Z,29.90
2017-08-17T14:42:32.812Z,29.70
2017-08-17T14:45:00.535Z,29.50
2017-08-17T14:47:28.244Z,29.30
2017-08-17T14:49:55.958Z,29.30
2017-08-17T14:52:23.676Z,29.20
2017-08-17T14:54:51.417Z,29.00
2017-08-17T14:57:19.899Z,28.70
2017-08-17T14:59:48.394Z,28.60
2017-08-17T15:02:16.175Z,28.60
2017-08-17T15:04:43.959Z,28.60
2017-08-17T15:07:11.678Z,28.50
2017-08-17T15:09:40.166Z,28.50
2017-08-17T15:12:07.879Z,28.50
2017-08-17T15:14:35.614Z,28.60
2017-08-17T15:17:03.337Z,28.60
2017-08-17T15:19:31.834Z,28.80
2017-08-17T15:22:00.319Z,28.90
2017-08-17T15:24:28.033Z,28.80
2017-08-17T15:26:55.743Z,28.80
2017-08-17T15:29:24.234Z,28.70
2017-08-17T15:31:51.967Z,28.60
2017-08-17T15:34:19.677Z,28.50
2017-08-17T15:36:47.393Z,28.40
2017-08-17T15:39:15.123Z,28.40
2017-08-17T15:42:19.899Z,28.20
2017-08-17T15:44:48.383Z,28.10
2017-08-17T15:47:16.101Z,28.10
2017-08-17T15:49:43.843Z,28.00
2017-08-17T15:52:11.552Z,28.00
2017-08-17T15:54:39.266Z,27.90
2017-08-17T15:57:06.977Z,27.80
2017-08-17T15:59:34.693Z,27.80
2017-08-17T16:02:02.428Z,27.70
2017-08-17T16:04:30.913Z,27.50
2017-08-17T16:06:59.418Z,27.50
2017-08-17T16:09:27.146Z,27.50
2017-08-17T16:11:54.853Z,27.40
2017-08-17T16:14:22.568Z,27.50
2017-08-17T16:16:50.269Z,27.50
2017-08-17T16:19:17.978Z,27.50
2017-08-17T16:21:45.695Z,27.40
2017-08-17T16:24:13.406Z,26.90
2017-08-17T16:26:41.118Z,26.60
2017-08-17T16:29:08.826Z,26.60
2017-08-17T16:31:36.575Z,26.60
2017-08-17T16:34:04.302Z,26.60
2017-08-17T16:36:32.030Z,26.60
2017-08-17T16:38:59.762Z,26.70
2017-08-17T16:41:27.479Z,26.60
2017-08-17T16:43:55.968Z,26.60
2017-08-17T16:46:24.458Z,26.70
2017-08-17T16:48:52.182Z,26.70
2017-08-17T16:51:19.948Z,26.70
2017-08-17T16:53:47.675Z,26.70
2017-08-17T16:56:15.410Z,26.70
2017-08-17T16:58:43.890Z,26.70
2017-08-17T17:01:12.373Z,26.70
2017-08-17T17:03:40.860Z,26.70
2017-08-17T17:06:08.623Z,26.70
2017-08-17T17:08:37.097Z,26.50
2017-08-17T17:11:05.585Z,26.50
2017-08-17T17:13:34.078Z,26.40
2017-08-17T17:16:01.808Z,26.30
2017-08-17T17:18:30.318Z,26.00
2017-08-17T17:20:58.802Z,26.10
2017-08-17T17:23:26.525Z,26.00
2017-08-17T17:25:54.246Z,26.20
2017-08-17T17:28:21.949Z,26.20
2017-08-17T17:30:49.695Z,26.10
2017-08-17T17:33:17.402Z,26.10
2017-08-17T17:35:45.895Z,26.10
2017-08-17T17:38:14.373Z,26.10
2017-08-17T17:40:42.859Z,26.20
2017-08-17T17:43:11.338Z,26.20
2017-08-17T17:45:39.832Z,26.20
2017-08-17T17:48:07.558Z,26.20
2017-08-17T17:50:35.270Z,26.30
2017-08-17T17:53:02.986Z,26.30
2017-08-17T17:55:30.713Z,26.30
2017-08-17T17:57:58.434Z,26.30
2017-08-17T18:00:26.911Z,25.90
2017-08-17T18:02:55.399Z,26.00
2017-08-17T18:05:23.883Z,25.90
2017-08-17T18:07:52.362Z,25.80
2017-08-17T18:10:20.851Z,25.80
2017-08-17T18:12:49.344Z,25.70
2017-08-17T18:15:17.060Z,25.70
2017-08-17T18:17:44.782Z,25.70
2017-08-17T18:20:12.494Z,25.60
2017-08-17T18:22:40.261Z,25.70
2017-08-17T18:25:07.995Z,25.60
2017-08-17T18:27:35.705Z,25.60
2017-08-17T18:30:04.245Z,25.50
2017-08-17T18:32:31.974Z,25.50
2017-08-17T18:34:59.695Z,25.50
2017-08-17T18:37:27.407Z,25.50
2017-08-17T18:39:55.112Z,25.60
2017-08-17T18:42:22.813Z,25.60
2017-08-17T18:44:51.294Z,25.50
2017-08-17T18:47:19.766Z,25.50
2017-08-17T18:49:47.491Z,25.50
2017-08-17T18:52:15.221Z,25.50
2017-08-17T18:54:42.921Z,25.50
2017-08-17T18:57:10.639Z,25.40
2017-08-17T18:59:39.130Z,25.30
2017-08-17T19:02:06.843Z,25.30
2017-08-17T19:04:34.566Z,25.30
2017-08-17T19:07:02.323Z,25.20
2017-08-17T19:09:30.046Z,25.20
2017-08-17T19:11:57.771Z,25.20
2017-08-17T19:14:25.482Z,25.10
2017-08-17T19:16:53.190Z,25.10
2017-08-17T19:19:20.897Z,25.00
2017-08-17T19:21:48.633Z,25.00
2017-08-17T19:24:16.378Z,25.00
2017-08-17T19:26:44.086Z,25.00
2017-08-17T19:29:11.807Z,25.00
2017-08-17T19:31:39.533Z,25.00
2017-08-17T19:34:07.243Z,25.00
2017-08-17T19:36:34.960Z,25.00
2017-08-17T19:39:03.521Z,24.90
2017-08-17T19:41:31.245Z,25.00
2017-08-17T19:43:58.957Z,25.00
2017-08-17T19:46:26.676Z,24.90
2017-08-17T19:48:54.400Z,24.90
2017-08-17T19:51:22.879Z,24.90
2017-08-17T19:53:50.604Z,24.80
2017-08-17T19:56:19.625Z,24.80
2017-08-17T19:58:49.181Z,24.70
2017-08-17T20:01:16.934Z,24.70
2017-08-17T20:03:44.650Z,24.70
2017-08-17T20:06:12.371Z,24.70
2017-08-17T20:08:40.091Z,24.50
2017-08-17T20:11:07.836Z,24.40
2017-08-17T20:13:35.549Z,24.10
2017-08-17T20:16:04.035Z,23.80
2017-08-17T20:18:31.759Z,23.80
2017-08-17T20:20:59.482Z,23.90
2017-08-17T20:23:27.213Z,23.90
2017-08-17T20:25:55.694Z,23.70
2017-08-17T20:28:24.179Z,23.70
2017-08-17T20:30:52.662Z,23.70
2017-08-17T20:33:21.141Z,23.70
2017-08-17T20:35:49.624Z,23.70
2017-08-17T20:38:17.676Z,23.70
2017-08-17T20:40:46.918Z,23.70
2017-08-17T20:43:14.651Z,23.70
2017-08-17T20:45:43.122Z,23.40
2017-08-17T20:48:10.836Z,23.40
2017-08-17T20:50:38.555Z,23.50
2017-08-17T20:53:07.034Z,23.50
2017-08-17T20:55:37.239Z,23.50
2017-08-17T20:58:05.255Z,23.50
2017-08-17T21:00:32.976Z,23.60
2017-08-17T21:03:00.702Z,23.70
2017-08-17T21:05:28.415Z,23.70
2017-08-17T21:07:56.152Z,23.80
2017-08-17T21:10:23.866Z,23.80
2017-08-17T21:12:52.345Z,23.70
2017-08-17T21:15:20.831Z,23.70
2017-08-17T21:17:48.544Z,23.70
2017-08-17T21:20:16.252Z,23.70
2017-08-17T21:22:43.964Z,23.70
2017-08-17T21:25:11.683Z,23.30
2017-08-17T21:27:40.165Z,23.40
2017-08-17T21:30:07.888Z,23.40
2017-08-17T21:32:39.116Z,23.40
2017-08-17T21:35:10.626Z,23.00
2017-08-17T21:37:43.344Z,23.00
2017-08-17T21:40:14.185Z,23.00
2017-08-17T21:42:46.305Z,23.10
2017-08-17T21:45:17.904Z,23.10
2017-08-17T21:47:49.605Z,23.00
2017-08-17T21:50:21.490Z,23.00
2017-08-17T21:52:51.564Z,22.90
2017-08-17T21:55:20.757Z,22.80
2017-08-17T21:57:49.914Z,22.70
2017-08-17T22:00:19.391Z,22.60
2017-08-17T22:02:49.202Z,22.80
2017-08-17T22:05:17.697Z,22.80
2017-08-17T22:07:46.182Z,22.70
2017-08-17T22:10:14.675Z,22.50
2017-08-17T22:12:42.395Z,22.50
2017-08-17T22:15:10.114Z,22.60
2017-08-17T22:17:37.839Z,22.60
2017-08-17T22:20:06.425Z,22.70
2017-08-17T22:22:34.915Z,22.70
2017-08-17T22:25:03.406Z,22.70
2017-08-17T22:27:31.892Z,22.70
2017-08-17T22:29:59.605Z,22.70
2017-08-17T22:32:27.322Z,22.60
2017-08-17T22:34:57.046Z,22.60
2017-08-17T22:37:27.034Z,22.60
2017-08-17T22:39:55.516Z,22.30
2017-08-17T22:42:23.239Z,22.30
2017-08-17T22:44:51.044Z,22.40
2017-08-17T22:47:19.526Z,22.40
2017-08-17T22:49:48.007Z,22.40
2017-08-17T22:52:16.488Z,22.40
2017-08-17T22:54:44.993Z,22.40
2017-08-17T22:57:12.712Z,22.30
2017-08-17T22:59:40.439Z,22.30
2017-08-17T23:02:08.152Z,22.30
2017-08-17T23:04:35.881Z,22.20
2017-08-17T23:07:03.610Z,22.20
2017-08-17T23:09:31.331Z,22.20
2017-08-17T23:11:59.067Z,22.20
2017-08-17T23:14:26.785Z,22.10
2017-08-17T23:16:55.282Z,21.90
2017-08-17T23:19:22.991Z,21.90
2017-08-17T23:21:50.711Z,21.60
2017-08-17T23:24:18.443Z,21.40
2017-08-17T23:26:46.924Z,21.30
2017-08-17T23:29:14.731Z,21.30
2017-08-17T23:32:11.191Z,21.40
2017-08-17T23:38:19.004Z,21.50
